Rechercher aéroport 
image banner adimage banner adimage banner ad
image banner ad

CA74 - Skydive California

Situé à Tracy, United States

ICAO - CA74, IATA -

Données fournies par Airmate  

Information générale

Coordonnées: N37°43'53" W121°20'8"
Élévation : 35 feet MSL.
 
Voir autres Aéroports à California

Données opérationnelles

Special qualification required
Heure actuelle UTC:
Heure actuelle locale:
Météo à : KTCY - Tracy Muni ( 10 km )
METAR: KTCY 292215Z AUTO 33010KT 310V020 10SM CLR 38/14 A2982 RMK A01
Voir NOTAMs / SUP AIP / TFR affectant cet aéroport [VIEW]
Fréquences de communication: [VIEW]

Pistes:

Identifiant RWYQFULongueur (ft)Largeur (ft)SurfaceLDA (ft)
12206330ASPH
30206330ASPH

Coordonnées de l'aéroport

Adresse: Tracy United States

Vue satellite de CA74